Watertown Municipal, SD

9:02 PM CDT on August 16, 2017 (GMT -0500)
Watertown Municipal | | Change Station

Elev 1745 ft 44.91 °N, 97.15 °W | Updated 9 minutes ago

Light Rain
Light Rain
65 °F
Feels Like 65 °F
N
12
Wind Variable Wind from North

Today
High -- | Low -- °F
--% Chance of Precip.
Yesterday
High -- | Low -- °F
Precip. -- in
Pressure 29.73 in
Visibility 10.0 miles
Clouds Mostly Cloudy 900 ft
Mostly Cloudy 1900 ft
Overcast 3900 ft
Dew Point 65 °F
Humidity 100%
Rainfall 0.68 in
Snow Depth Not available.
6:32 AM 8:32 PM
Waning Crescent, 27% visible
METAR KATY 170153Z AUTO 36010KT 10SM -RA BKN009 BKN019 OVC039 18/18 A2975 RMK AO2 SLP068 P0003 T01830183
Pressure 29.73 in
Visibility 10.0 miles
Clouds Mostly Cloudy 900 ft
Mostly Cloudy 1900 ft
Overcast 3900 ft
Dew Point 65 °F
Humidity 100%
Rainfall 0.68 in
Snow Depth Not available.
6:32 AM 8:32 PM
Waning Crescent, 27% visible
METAR KATY 170153Z AUTO 36010KT 10SM -RA BKN009 BKN019 OVC039 18/18 A2975 RMK AO2 SLP068 P0003 T01830183

Get Severe Weather Alerts

Thanks for signing up!

Be on the lookout for a verification email in your inbox.

You'll start receiving the daily forecast at 6 AM.

×

10-Day Weather Forecast

Almanac

Astronomy

Aug. 16, 2017 Rise Set
Actual Time
Civil Twilight
Nautical Twilight
Astronomical Twilight
Moon
Length of Visible Light
Length of Day
Tomorrow will be .
, % of the Moon is Illuminated

Today's Extremes

State Highs State Lows

Community

WunderPhotos

Category 6

Welcome to Category 6. This is the collective home for Weather Underground's featured writeups by Dr. Jeff Masters (right), Bob Henson (left), Chris Burt, and other regular contributors.

Nearby

Air Quality

  Air Quality AQ Index Pollutant
Not available.

Snow Depth

Station Depth Elevation

Earthquake Activity

City Distance Mag. Time & Date
Minimum magnitude displayed is 2.5.

Coastal Water Temperatures

Place Temperature

Stations

Nearby Weather Stations

Station Location Temp. Windchill Dew Point Humidity Wind Precip. Elev Updated Type
                   

Watches & Warnings

There are currently no watches in effect.